Time;durP1;ratioP1;P1;durP2;ratioP2;P2;SDS_P1;SDS_P2;PMS_P1;PMS_P2;Temp;Humidity;BMP_temperature;BMP_pressure;BME280_temperature;BME280_humidity;BME280_pressure;Samples;Min_cycle;Max_cycle;Signal;HPM_P1;HPM_P2
2023/04/24 06:30:40;;;;;;;4.07;1.45;;;11.60;99.90;;;;;;7275600;23;20073;-75
2023/04/24 06:33:42;;;;;;;4.43;1.38;;;11.50;99.90;;;;;;6214063;28;20370;-77
2023/04/24 06:36:45;;;;;;;5.85;1.50;;;11.50;99.90;;;;;;6199338;28;20053;-77
2023/04/24 06:39:47;;;;;;;2.80;1.42;;;11.50;99.90;;;;;;6198803;28;20050;-78
2023/04/24 06:42:49;;;;;;;6.78;1.70;;;11.60;99.90;;;;;;6241688;28;20045;-74
2023/04/24 06:45:52;;;;;;;3.00;1.30;;;11.60;99.90;;;;;;6247558;28;20406;-76
2023/04/24 06:48:55;;;;;;;4.63;1.67;;;11.60;99.90;;;;;;6247743;28;20046;-75
2023/04/24 06:51:57;;;;;;;3.03;1.52;;;11.60;99.90;;;;;;6247698;28;20081;-75
2023/04/24 06:55:02;;;;;;;2.90;1.45;;;11.80;99.90;;;;;;6236979;28;20050;-75
2023/04/24 06:58:04;;;;;;;3.47;1.48;;;11.80;99.90;;;;;;6223225;28;20053;-73
2023/04/24 07:01:07;;;;;;;3.22;1.50;;;11.90;99.90;;;;;;6226105;28;20384;-77
2023/04/24 07:04:08;;;;;;;3.72;1.52;;;11.90;99.90;;;;;;6227958;28;20050;-77
2023/04/24 07:07:13;;;;;;;3.88;1.58;;;12.00;99.90;;;;;;6247342;28;20064;-76
2023/04/24 07:10:15;;;;;;;3.00;1.48;;;12.00;99.90;;;;;;6251626;28;20569;-77
2023/04/24 07:13:18;;;;;;;4.78;1.50;;;12.10;99.90;;;;;;6251563;28;20049;-76
2023/04/24 07:16:21;;;;;;;3.58;1.50;;;12.10;99.90;;;;;;6251737;28;20049;-75
2023/04/24 07:19:23;;;;;;;2.80;1.30;;;12.20;99.90;;;;;;6251946;28;20049;-75
2023/04/24 07:22:25;;;;;;;3.85;1.30;;;12.20;99.90;;;;;;6251532;28;20053;-75
2023/04/24 07:25:27;;;;;;;3.60;1.48;;;12.40;99.90;;;;;;6232333;28;20119;-75
2023/04/24 07:28:30;;;;;;;2.75;1.38;;;12.30;99.90;;;;;;6243754;28;20061;-76
2023/04/24 07:31:34;;;;;;;3.95;1.50;;;12.20;99.90;;;;;;6251377;28;20537;-76
2023/04/24 07:34:37;;;;;;;3.25;1.42;;;12.00;99.90;;;;;;6251702;28;20065;-75
2023/04/24 07:37:39;;;;;;;3.95;1.30;;;11.80;99.90;;;;;;6252472;28;20045;-76
2023/04/24 07:40:41;;;;;;;2.83;1.50;;;11.80;99.90;;;;;;6249835;28;20136;-77
2023/04/24 07:43:43;;;;;;;3.28;1.50;;;11.80;99.90;;;;;;6251187;28;20442;-75
2023/04/24 07:46:46;;;;;;;3.58;1.40;;;11.70;99.90;;;;;;6235686;28;20582;-75
2023/04/24 07:49:48;;;;;;;5.70;1.25;;;11.80;99.90;;;;;;6226490;28;20042;-74
2023/04/24 07:52:50;;;;;;;4.38;1.30;;;12.10;99.90;;;;;;6240357;28;20045;-75
2023/04/24 07:55:51;;;;;;;2.65;1.10;;;12.20;99.90;;;;;;6250672;28;20045;-76
2023/04/24 07:58:53;;;;;;;3.25;1.20;;;12.30;99.90;;;;;;6219985;28;20065;-74
2023/04/24 08:01:56;;;;;;;2.20;1.08;;;12.50;99.90;;;;;;6236401;28;20045;-77
2023/04/24 08:04:58;;;;;;;2.50;1.00;;;12.50;99.90;;;;;;6247897;28;20057;-77
2023/04/24 08:08:00;;;;;;;4.70;1.30;;;12.60;99.40;;;;;;6247554;28;20513;-76
2023/04/24 08:11:02;;;;;;;2.60;1.13;;;12.60;97.90;;;;;;6247675;28;20053;-75
2023/04/24 08:14:04;;;;;;;3.22;1.10;;;12.50;99.00;;;;;;6219458;28;20053;-76
2023/04/24 08:17:10;;;;;;;2.83;1.25;;;12.60;96.10;;;;;;6223037;28;20050;-78
2023/04/24 08:20:14;;;;;;;3.47;1.30;;;12.40;96.30;;;;;;6223107;28;20060;-76
2023/04/24 08:23:15;;;;;;;4.15;1.50;;;12.50;96.60;;;;;;6225432;28;20513;-77
2023/04/24 08:26:17;;;;;;;3.33;1.10;;;12.60;96.60;;;;;;6229034;28;20192;-77
2023/04/24 08:29:19;;;;;;;4.43;1.10;;;12.60;96.00;;;;;;6231313;28;20050;-79
2023/04/24 08:32:23;;;;;;;2.92;1.10;;;12.70;95.70;;;;;;6225385;28;20058;-74
2023/04/24 08:35:24;;;;;;;3.75;1.27;;;12.70;94.80;;;;;;6222006;28;20054;-75
2023/04/24 08:38:27;;;;;;;5.13;1.30;;;12.50;94.10;;;;;;6221282;28;20081;-75
2023/04/24 08:41:29;;;;;;;3.88;1.50;;;12.40;94.40;;;;;;6221884;28;20057;-74
2023/04/24 08:44:31;;;;;;;3.03;1.30;;;12.60;94.50;;;;;;6222439;28;20109;-76
2023/04/24 08:47:36;;;;;;;3.15;1.20;;;12.40;92.60;;;;;;6221531;28;20473;-76
2023/04/24 08:50:38;;;;;;;5.22;1.48;;;12.20;92.90;;;;;;6222094;28;20491;-75
2023/04/24 08:53:41;;;;;;;3.88;1.40;;;12.30;93.60;;;;;;6221960;28;20053;-75
2023/04/24 08:56:46;;;;;;;3.55;1.10;;;12.30;92.90;;;;;;6222116;28;20503;-74
2023/04/24 08:59:48;;;;;;;4.97;1.30;;;12.10;91.50;;;;;;6222705;28;20050;-75
2023/04/24 09:02:53;;;;;;;3.45;1.40;;;12.30;92.00;;;;;;6222452;28;20466;-75
2023/04/24 09:05:57;;;;;;;4.47;1.27;;;12.40;91.70;;;;;;6228927;28;20061;-75
2023/04/24 09:09:01;;;;;;;4.03;1.20;;;12.50;90.90;;;;;;6230129;28;20056;-74
2023/04/24 09:12:04;;;;;;;2.53;1.25;;;12.60;91.00;;;;;;6233593;28;20061;-77
2023/04/24 09:15:09;;;;;;;3.17;1.20;;;12.60;89.70;;;;;;6223049;28;20418;-77
2023/04/24 09:18:12;;;;;;;3.50;1.30;;;12.70;90.50;;;;;;6221591;28;20073;-76
2023/04/24 09:21:14;;;;;;;3.13;1.30;;;12.60;90.90;;;;;;6220006;28;20061;-75
2023/04/24 09:24:20;;;;;;;3.17;1.40;;;12.50;91.20;;;;;;6221296;28;20420;-77
2023/04/24 09:27:24;;;;;;;3.92;1.17;;;12.50;90.40;;;;;;6229733;28;20046;-75
2023/04/24 09:30:26;;;;;;;3.50;1.40;;;12.60;87.10;;;;;;6226054;28;20041;-76
2023/04/24 09:33:30;;;;;;;3.75;1.20;;;12.60;86.40;;;;;;6225027;28;20061;-75
2023/04/24 09:36:33;;;;;;;;;;;12.60;89.10;;;;;;6222662;28;20061;-74
2023/04/24 09:39:35;;;;;;;4.05;1.30;;;12.70;87.70;;;;;;6225062;28;19947;-74
2023/04/24 09:42:37;;;;;;;6.55;1.30;;;12.70;88.70;;;;;;6226303;28;20104;-76
2023/04/24 09:45:40;;;;;;;3.30;1.30;;;12.80;89.80;;;;;;6224494;28;20042;-79
2023/04/24 09:48:44;;;;;;;3.13;1.20;;;12.80;90.10;;;;;;6222386;28;20553;-76
2023/04/24 09:51:45;;;;;;;4.22;1.33;;;12.80;89.90;;;;;;6222847;28;20775;-76
2023/04/24 09:54:54;;;;;;;3.35;1.10;;;12.60;89.70;;;;;;6242140;28;20052;-76
2023/04/24 09:57:59;;;;;;;4.43;1.30;;;12.30;89.00;;;;;;6230109;28;20050;-74
2023/04/24 10:01:01;;;;;;;3.75;1.30;;;12.20;89.20;;;;;;6221014;28;20054;-75
2023/04/24 10:04:05;;;;;;;3.17;1.15;;;12.20;86.70;;;;;;6222086;28;20054;-75
2023/04/24 10:07:09;;;;;;;3.85;1.13;;;12.00;85.20;;;;;;6222755;28;20057;-75
2023/04/24 10:10:11;;;;;;;;;;;12.00;85.30;;;;;;6223751;28;20061;-74
2023/04/24 10:13:15;;;;;;;5.53;1.23;;;12.40;86.50;;;;;;6244399;28;19932;-78
2023/04/24 10:16:17;;;;;;;3.13;1.00;;;12.60;87.10;;;;;;6241845;28;20457;-76
2023/04/24 10:19:20;;;;;;;2.65;1.05;;;12.50;87.00;;;;;;6249610;28;20060;-75
2023/04/24 10:22:23;;;;;;;5.55;1.20;;;12.20;87.70;;;;;;6194621;28;20050;-77
2023/04/24 10:25:28;;;;;;;4.50;1.38;;;12.50;88.70;;;;;;6196401;28;20051;-76
2023/04/24 10:28:33;;;;;;;3.33;1.23;;;12.70;86.80;;;;;;6196679;28;20129;-77
2023/04/24 10:31:35;;;;;;;2.38;1.10;;;12.90;82.80;;;;;;6196439;28;20069;-77
2023/04/24 10:34:38;;;;;;;2.20;1.00;;;13.00;84.00;;;;;;6201694;28;20060;-77
2023/04/24 10:37:45;;;;;;;2.55;1.10;;;13.20;81.80;;;;;;6241743;28;20064;-76
2023/04/24 10:40:47;;;;;;;4.50;1.45;;;13.40;82.40;;;;;;6239293;28;20053;-74
2023/04/24 10:43:50;;;;;;;2.58;0.90;;;13.40;79.50;;;;;;6232116;28;20144;-76
2023/04/24 10:46:55;;;;;;;2.75;0.90;;;13.30;80.90;;;;;;6226399;28;20161;-76
2023/04/24 10:50:02;;;;;;;2.60;0.82;;;12.90;82.10;;;;;;6224616;28;20050;-73
2023/04/24 10:53:14;;;;;;;2.45;1.00;;;12.80;81.70;;;;;;6200202;28;20054;-75
2023/04/24 10:56:17;;;;;;;3.70;1.00;;;12.90;82.30;;;;;;6210996;28;20053;-76
2023/04/24 10:59:27;;;;;;;3.15;0.80;;;12.90;82.10;;;;;;6223932;28;20661;-76
2023/04/24 11:02:38;;;;;;;3.03;0.80;;;12.80;80.70;;;;;;6227442;28;20049;-74
2023/04/24 11:05:57;;;;;;;1.92;0.77;;;12.80;81.60;;;;;;6250413;28;20056;-76
2023/04/24 11:09:05;;;;;;;3.85;0.80;;;12.80;82.10;;;;;;6248322;28;20526;-74
2023/04/24 11:12:12;;;;;;;3.20;1.00;;;13.00;82.10;;;;;;6248767;28;20053;-74
2023/04/24 11:15:17;;;;;;;4.35;0.90;;;12.60;82.40;;;;;;6248107;28;20057;-77
2023/04/24 11:18:19;;;;;;;2.38;0.93;;;12.70;83.70;;;;;;6247924;28;20053;-75
2023/04/24 11:21:23;;;;;;;3.17;0.80;;;12.70;84.40;;;;;;6246266;28;20091;-75
2023/04/24 11:24:31;;;;;;;2.38;0.90;;;12.70;85.10;;;;;;6248233;28;20482;-75
2023/04/24 11:27:43;;;;;;;2.33;1.00;;;12.80;85.40;;;;;;6248309;28;20132;-77
2023/04/24 11:30:45;;;;;;;2.28;0.90;;;12.70;84.90;;;;;;6248093;28;20410;-74
2023/04/24 11:33:47;;;;;;;2.80;1.02;;;12.50;84.90;;;;;;6229399;28;20061;-76
2023/04/24 11:36:51;;;;;;;2.38;0.98;;;12.40;85.70;;;;;;6244853;28;20060;-74
2023/04/24 11:39:54;;;;;;;2.90;1.02;;;12.60;84.80;;;;;;6248637;28;20045;-74
2023/04/24 11:42:56;;;;;;;3.10;0.98;;;12.40;84.30;;;;;;6223948;28;20057;-76
2023/04/24 11:46:01;;;;;;;2.03;0.85;;;12.30;85.70;;;;;;6228912;28;20531;-75
2023/04/24 11:49:02;;;;;;;2.65;0.98;;;12.50;86.00;;;;;;6229874;28;20136;-78
2023/04/24 11:52:07;;;;;;;5.95;1.52;;;12.50;86.90;;;;;;6223371;28;20050;-78
2023/04/24 11:55:25;;;;;;;3.95;0.93;;;12.40;85.80;;;;;;6226233;28;20524;-74
2023/04/24 11:58:27;;;;;;;2.55;1.00;;;12.10;85.70;;;;;;6247742;28;20049;-77
2023/04/24 12:01:29;;;;;;;2.03;0.88;;;12.10;86.50;;;;;;6226075;28;20068;-74
2023/04/24 12:04:40;;;;;;;2.35;0.90;;;12.20;86.40;;;;;;6224582;28;20045;-74
2023/04/24 12:07:43;;;;;;;2.25;0.90;;;12.00;87.00;;;;;;6228658;28;20057;-76
2023/04/24 12:10:45;;;;;;;1.52;0.70;;;12.20;86.60;;;;;;6226097;28;20410;-76
2023/04/24 12:13:47;;;;;;;1.98;0.90;;;12.30;86.90;;;;;;6225881;28;20065;-75
2023/04/24 12:16:49;;;;;;;1.98;0.80;;;12.40;86.70;;;;;;6226086;28;20061;-74
2023/04/24 12:19:51;;;;;;;3.63;1.05;;;12.40;85.00;;;;;;6227097;28;20061;-76
2023/04/24 12:22:56;;;;;;;1.92;0.77;;;12.50;84.30;;;;;;6226508;28;20112;-76
2023/04/24 12:26:01;;;;;;;2.38;1.10;;;12.70;84.30;;;;;;6225705;28;20076;-77
2023/04/24 12:29:05;;;;;;;3.25;1.13;;;12.40;84.30;;;;;;6225691;28;20050;-76
2023/04/24 12:32:17;;;;;;;2.97;1.08;;;12.10;84.90;;;;;;6225204;28;20058;-76
2023/04/24 12:35:21;;;;;;;2.80;1.10;;;12.00;86.40;;;;;;6225925;28;20053;-74
2023/04/24 12:38:27;;;;;;;2.58;1.00;;;12.00;86.30;;;;;;6237667;28;20045;-76
2023/04/24 12:41:31;;;;;;;3.10;1.00;;;11.90;86.60;;;;;;6250285;28;20041;-74
2023/04/24 12:44:36;;;;;;;1.98;0.88;;;11.90;87.30;;;;;;6242983;28;20049;-77
2023/04/24 12:47:39;;;;;;;2.78;0.93;;;11.90;87.50;;;;;;6249933;28;20414;-77
2023/04/24 12:50:41;;;;;;;2.70;1.00;;;12.00;86.00;;;;;;6249717;28;20053;-77
2023/04/24 12:53:44;;;;;;;3.72;1.00;;;12.00;86.00;;;;;;6250045;28;20509;-77
2023/04/24 12:56:46;;;;;;;2.63;0.90;;;12.10;87.00;;;;;;6249297;28;20131;-77
2023/04/24 12:59:48;;;;;;;3.00;1.00;;;12.10;86.90;;;;;;6247826;28;20509;-75
2023/04/24 13:02:50;;;;;;;2.70;1.00;;;12.00;86.60;;;;;;6249899;28;20046;-77
2023/04/24 13:05:52;;;;;;;3.00;0.90;;;12.10;87.60;;;;;;6200986;28;20050;-77
2023/04/24 13:08:57;;;;;;;3.20;1.02;;;12.50;86.80;;;;;;6232929;28;20045;-80
2023/04/24 13:12:00;;;;;;;2.65;0.98;;;12.60;86.40;;;;;;6201161;28;20042;-75
2023/04/24 13:15:03;;;;;;;3.60;1.20;;;12.70;86.50;;;;;;6200144;28;20206;-76
2023/04/24 13:18:05;;;;;;;2.63;1.20;;;12.90;85.10;;;;;;6207421;28;20107;-75
2023/04/24 13:21:07;;;;;;;2.97;1.02;;;13.20;84.60;;;;;;6249083;28;20045;-74
2023/04/24 13:24:11;;;;;;;2.53;1.20;;;13.40;82.30;;;;;;6235163;28;20410;-76
2023/04/24 13:27:13;;;;;;;3.40;1.23;;;13.90;82.10;;;;;;6224294;28;20053;-76
2023/04/24 13:30:15;;;;;;;2.65;1.10;;;14.30;81.10;;;;;;6224594;28;20049;-76
2023/04/24 13:33:16;;;;;;;2.85;1.30;;;14.40;80.30;;;;;;6223821;28;20050;-76
2023/04/24 13:36:18;;;;;;;2.47;1.20;;;13.80;80.30;;;;;;6230977;28;20398;-76
2023/04/24 13:39:22;;;;;;;3.72;1.30;;;13.70;82.10;;;;;;6247988;28;20056;-75
2023/04/24 13:42:24;;;;;;;3.40;1.20;;;13.60;82.20;;;;;;6248538;28;20502;-76
2023/04/24 13:45:26;;;;;;;4.13;1.40;;;13.40;82.70;;;;;;6248453;28;20533;-76
2023/04/24 13:48:27;;;;;;;2.63;1.20;;;12.80;84.90;;;;;;6248204;28;20052;-73
2023/04/24 13:51:30;;;;;;;3.30;1.42;;;12.70;84.30;;;;;;6248341;28;20041;-77
2023/04/24 13:54:33;;;;;;;3.42;1.30;;;12.70;84.10;;;;;;6249378;28;20411;-75
2023/04/24 13:57:35;;;;;;;2.88;1.10;;;12.60;84.80;;;;;;6247481;28;20119;-77
2023/04/24 14:00:37;;;;;;;2.85;1.40;;;12.60;86.10;;;;;;6248505;28;20053;-77
2023/04/24 14:03:39;;;;;;;2.60;1.25;;;12.80;85.40;;;;;;6248226;28;20042;-77
2023/04/24 14:06:41;;;;;;;3.38;1.52;;;12.90;84.60;;;;;;6246636;28;20049;-76
2023/04/24 14:09:44;;;;;;;5.30;1.40;;;12.80;84.90;;;;;;6250785;28;20497;-77
2023/04/24 14:12:46;;;;;;;3.53;1.30;;;12.60;85.70;;;;;;6253024;28;20048;-77
2023/04/24 14:15:47;;;;;;;3.85;1.30;;;12.60;85.80;;;;;;6253075;28;20402;-77
2023/04/24 14:18:49;;;;;;;3.35;1.40;;;12.50;86.40;;;;;;6255548;28;20055;-76
2023/04/24 14:21:51;;;;;;;4.10;1.30;;;12.50;86.60;;;;;;6251343;28;20112;-75
2023/04/24 14:24:54;;;;;;;3.20;1.42;;;12.50;86.10;;;;;;6252882;28;20045;-77
2023/04/24 14:27:56;;;;;;;4.70;1.40;;;12.60;85.40;;;;;;6222551;28;20447;-76
2023/04/24 14:30:58;;;;;;;3.05;1.33;;;12.40;85.60;;;;;;6219714;28;20061;-75
2023/04/24 14:34:00;;;;;;;4.00;1.35;;;12.40;85.50;;;;;;6224512;28;20068;-74
2023/04/24 14:37:02;;;;;;;3.47;1.30;;;12.30;86.30;;;;;;6237278;28;20060;-77
2023/04/24 14:40:08;;;;;;;2.65;1.33;;;12.30;86.90;;;;;;6249048;28;20052;-76
2023/04/24 14:43:09;;;;;;;3.50;1.50;;;12.20;86.20;;;;;;6233844;28;20054;-74
2023/04/24 14:46:11;;;;;;;2.80;1.33;;;12.20;85.80;;;;;;6223639;28;20054;-73
2023/04/24 14:49:14;;;;;;;3.22;1.40;;;12.10;85.00;;;;;;6225935;28;20045;-75
2023/04/24 14:52:16;;;;;;;4.40;1.80;;;12.20;85.30;;;;;;6223165;28;20050;-78
2023/04/24 14:55:19;;;;;;;3.40;1.50;;;12.30;84.20;;;;;;6224711;28;20061;-76
2023/04/24 14:58:21;;;;;;;;;;;12.30;84.30;;;;;;6224857;28;20050;-75
2023/04/24 15:01:23;;;;;;;5.55;1.48;;;12.30;84.70;;;;;;6224296;28;19921;-78
2023/04/24 15:04:26;;;;;;;3.30;1.52;;;12.50;84.00;;;;;;6222182;28;20135;-75
2023/04/24 15:07:28;;;;;;;4.30;1.80;;;12.40;84.40;;;;;;6223902;28;20058;-79
2023/04/24 15:10:31;;;;;;;4.07;1.40;;;12.50;83.80;;;;;;6223237;28;20042;-78
2023/04/24 15:13:33;;;;;;;3.25;1.42;;;12.50;84.10;;;;;;6225681;28;20058;-78
2023/04/24 15:16:35;;;;;;;2.97;1.30;;;12.60;83.90;;;;;;6229481;28;20064;-76
2023/04/24 15:19:37;;;;;;;2.35;1.00;;;12.60;84.20;;;;;;6231426;28;20058;-77
2023/04/24 15:22:39;;;;;;;3.20;1.30;;;12.70;82.90;;;;;;6230858;28;20462;-75
2023/04/24 15:25:42;;;;;;;2.60;1.10;;;12.60;83.40;;;;;;6223082;28;20097;-75
2023/04/24 15:28:46;;;;;;;3.67;1.52;;;12.60;83.20;;;;;;6224457;28;20491;-77
2023/04/24 15:31:48;;;;;;;2.97;1.40;;;12.60;83.10;;;;;;6232710;28;20069;-78
2023/04/24 15:34:50;;;;;;;2.75;1.10;;;12.60;83.80;;;;;;6228659;28;20053;-75
2023/04/24 15:37:52;;;;;;;3.15;1.23;;;12.50;84.10;;;;;;6224687;28;20103;-76
2023/04/24 15:40:55;;;;;;;3.45;1.13;;;12.40;83.30;;;;;;6227817;28;20511;-76
2023/04/24 15:43:57;;;;;;;6.55;1.40;;;12.40;84.30;;;;;;6223848;28;20145;-77
2023/04/24 15:47:01;;;;;;;3.97;1.73;;;12.40;83.70;;;;;;6221632;28;20054;-76
2023/04/24 15:50:05;;;;;;;6.32;2.03;;;12.50;84.10;;;;;;6223337;28;20071;-75
2023/04/24 15:53:07;;;;;;;3.67;1.38;;;12.60;83.70;;;;;;6223019;28;20049;-75
2023/04/24 15:56:10;;;;;;;3.13;1.52;;;12.80;83.90;;;;;;6222850;28;20053;-77
2023/04/24 15:59:12;;;;;;;4.72;1.38;;;13.90;82.40;;;;;;6235051;28;20045;-78
2023/04/24 16:02:17;;;;;;;3.55;1.30;;;15.90;77.00;;;;;;6222813;28;20419;-75
2023/04/24 16:05:21;;;;;;;5.82;1.65;;;16.10;73.50;;;;;;6198747;28;20420;-74
2023/04/24 16:08:23;;;;;;;2.70;1.30;;;15.60;74.60;;;;;;6198410;28;20054;-77
2023/04/24 16:11:27;;;;;;;2.95;1.23;;;15.10;75.80;;;;;;6220153;28;20112;-77
2023/04/24 16:14:28;;;;;;;2.50;1.05;;;14.20;76.60;;;;;;6222317;28;20046;-76
2023/04/24 16:17:30;;;;;;;2.45;1.00;;;14.10;78.40;;;;;;6222185;28;20057;-75
2023/04/24 16:20:32;;;;;;;4.90;1.45;;;13.70;78.80;;;;;;6222558;28;20487;-75
2023/04/24 16:23:35;;;;;;;3.38;1.20;;;13.60;79.60;;;;;;6222796;28;20053;-75
2023/04/24 16:26:41;;;;;;;4.38;1.42;;;13.80;80.90;;;;;;6221780;28;20525;-76
2023/04/24 16:29:43;;;;;;;2.47;1.13;;;14.10;79.90;;;;;;6220914;28;20053;-74
2023/04/24 16:32:45;;;;;;;3.40;1.15;;;15.40;76.90;;;;;;6219453;28;20076;-74
2023/04/24 16:35:46;;;;;;;2.40;1.17;;;16.70;73.60;;;;;;6221308;28;20558;-77
2023/04/24 16:38:49;;;;;;;3.78;1.30;;;17.40;70.30;;;;;;6221868;28;20054;-76
2023/04/24 16:41:53;;;;;;;3.85;1.20;;;17.60;70.10;;;;;;6221485;28;20177;-75
2023/04/24 16:44:55;;;;;;;3.20;1.25;;;17.20;69.50;;;;;;6209326;28;20096;-79
2023/04/24 16:47:57;;;;;;;3.17;1.40;;;16.30;71.20;;;;;;6223685;28;20054;-77
2023/04/24 16:50:59;;;;;;;2.75;1.20;;;16.00;71.90;;;;;;6233078;28;20057;-74
2023/04/24 16:54:01;;;;;;;2.55;1.30;;;15.40;72.90;;;;;;6232269;28;20050;-75
2023/04/24 16:57:06;;;;;;;4.82;1.13;;;14.70;74.80;;;;;;6235785;28;20415;-75
2023/04/24 17:00:09;;;;;;;3.35;1.40;;;14.40;76.00;;;;;;6224611;28;20054;-75
2023/04/24 17:03:11;;;;;;;2.90;1.38;;;14.10;78.00;;;;;;6219864;28;20051;-74
2023/04/24 17:06:13;;;;;;;2.60;1.20;;;13.80;77.90;;;;;;6215727;28;20041;-77
2023/04/24 17:09:16;;;;;;;3.00;1.40;;;13.90;79.00;;;;;;6198546;28;20057;-78
2023/04/24 17:12:19;;;;;;;3.10;1.58;;;13.80;79.80;;;;;;6214900;28;20046;-76
2023/04/24 17:15:21;;;;;;;3.50;1.60;;;13.60;79.50;;;;;;6196836;28;20053;-76
2023/04/24 17:18:24;;;;;;;3.28;1.58;;;13.60;80.30;;;;;;6203121;28;20056;-75
2023/04/24 17:21:26;;;;;;;3.70;1.38;;;13.70;79.90;;;;;;6220898;28;20522;-76
2023/04/24 17:24:28;;;;;;;4.80;1.80;;;13.50;80.30;;;;;;6221559;28;20054;-75
2023/04/24 17:27:32;;;;;;;4.53;1.42;;;13.50;80.20;;;;;;6221449;28;20046;-75
2023/04/24 17:30:33;;;;;;;3.83;1.60;;;13.70;79.90;;;;;;6220692;28;20116;-75
2023/04/24 17:33:35;;;;;;;4.35;2.15;;;14.10;78.40;;;;;;6221038;28;20045;-77
2023/04/24 17:36:38;;;;;;;3.42;1.40;;;14.60;77.00;;;;;;6220356;28;20057;-75
2023/04/24 17:39:40;;;;;;;4.32;1.30;;;14.80;76.10;;;;;;6220341;28;20081;-77
2023/04/24 17:42:43;;;;;;;2.78;1.15;;;15.00;75.10;;;;;;6220589;28;20473;-79
2023/04/24 17:45:45;;;;;;;3.80;1.30;;;14.90;74.80;;;;;;6218038;28;20058;-80
2023/04/24 17:48:47;;;;;;;2.42;0.90;;;14.40;74.80;;;;;;6216589;28;20049;-80
2023/04/24 17:51:49;;;;;;;4.35;1.10;;;14.10;76.50;;;;;;6218173;28;20050;-78
2023/04/24 17:54:52;;;;;;;2.90;1.23;;;13.80;76.80;;;;;;6218216;28;20568;-79
2023/04/24 17:57:55;;;;;;;2.25;0.90;;;13.50;77.70;;;;;;6217798;28;20415;-78
2023/04/24 18:00:57;;;;;;;2.47;1.05;;;13.30;78.50;;;;;;6217259;28;20065;-79
2023/04/24 18:03:59;;;;;;;3.17;1.30;;;13.20;79.60;;;;;;6225756;28;20105;-78
2023/04/24 18:07:01;;;;;;;3.28;1.17;;;12.80;79.80;;;;;;6220562;28;20778;-77
2023/04/24 18:10:03;;;;;;;3.97;1.35;;;12.90;80.80;;;;;;6211738;28;20483;-76
2023/04/24 18:13:06;;;;;;;3.50;1.30;;;12.80;80.90;;;;;;6210072;28;20483;-77
2023/04/24 18:16:08;;;;;;;3.60;1.30;;;12.80;81.70;;;;;;6206317;28;20070;-79
2023/04/24 18:19:10;;;;;;;2.50;1.23;;;12.60;81.70;;;;;;6219851;28;20054;-79
2023/04/24 18:22:11;;;;;;;3.20;1.30;;;12.50;82.50;;;;;;6216934;28;20053;-79
2023/04/24 18:25:14;;;;;;;3.10;1.15;;;12.50;82.60;;;;;;6217907;28;20535;-77
2023/04/24 18:28:17;;;;;;;2.80;1.33;;;12.50;83.30;;;;;;6220605;28;20054;-78
2023/04/24 18:31:19;;;;;;;3.33;1.15;;;12.50;82.90;;;;;;6213522;28;20054;-77
2023/04/24 18:34:21;;;;;;;3.80;1.13;;;12.40;83.10;;;;;;6214329;28;20050;-78
2023/04/24 18:37:23;;;;;;;3.80;1.40;;;12.40;83.40;;;;;;6219246;28;20050;-76
2023/04/24 18:40:28;;;;;;;4.32;1.60;;;12.30;83.80;;;;;;6228282;28;20050;-78
2023/04/24 18:43:32;;;;;;;3.63;1.45;;;12.30;84.20;;;;;;6227189;28;20459;-77
2023/04/24 18:46:37;;;;;;;4.82;1.70;;;12.20;84.30;;;;;;6218577;28;20061;-79
2023/04/24 18:49:39;;;;;;;3.65;1.50;;;12.30;84.80;;;;;;6219585;28;20073;-79
2023/04/24 18:52:41;;;;;;;3.60;2.08;;;12.30;84.70;;;;;;6215581;28;20050;-78
2023/04/24 18:55:43;;;;;;;4.97;2.20;;;12.30;85.20;;;;;;6239024;28;20053;-78
2023/04/24 18:58:47;;;;;;;4.80;2.60;;;12.40;85.10;;;;;;6224587;28;20058;-78
2023/04/24 19:01:49;;;;;;;3.97;1.85;;;12.40;85.50;;;;;;6219372;28;20058;-78
2023/04/24 19:04:51;;;;;;;4.03;1.88;;;12.30;85.70;;;;;;6213491;28;20060;-75
2023/04/24 19:07:53;;;;;;;3.75;1.80;;;12.20;86.50;;;;;;6214102;28;20049;-77
2023/04/24 19:10:55;;;;;;;4.47;1.70;;;11.90;87.80;;;;;;6217064;28;20456;-80
2023/04/24 19:14:01;;;;;;;5.95;3.00;;;11.70;89.10;;;;;;6220029;28;20057;-79
2023/04/24 19:17:03;;;;;;;4.28;1.80;;;11.70;90.10;;;;;;6219983;28;20133;-80
2023/04/24 19:20:07;;;;;;;4.55;1.88;;;11.70;90.60;;;;;;6220774;28;20050;-80
2023/04/24 19:23:09;;;;;;;4.38;1.50;;;11.70;91.30;;;;;;6219832;28;20088;-77
2023/04/24 19:26:12;;;;;;;3.63;1.27;;;11.60;92.20;;;;;;6219438;28;20854;-79
2023/04/24 19:29:16;;;;;;;4.50;1.38;;;11.50;92.90;;;;;;6219875;28;20075;-80
2023/04/24 19:32:18;;;;;;;4.05;1.48;;;11.40;93.40;;;;;;6219833;28;20515;-78
2023/04/24 19:35:20;;;;;;;3.20;1.38;;;11.30;93.50;;;;;;6233266;28;20491;-80
2023/04/24 19:38:22;;;;;;;3.60;1.20;;;11.40;93.80;;;;;;6232149;28;20062;-79
2023/04/24 19:41:24;;;;;;;4.22;1.60;;;11.30;93.80;;;;;;6220457;28;20057;-78
2023/04/24 19:44:27;;;;;;;5.47;1.70;;;11.30;94.20;;;;;;6219319;28;20388;-79
2023/04/24 19:47:29;;;;;;;3.10;1.70;;;11.30;94.10;;;;;;6218442;28;20418;-78
2023/04/24 19:50:31;;;;;;;4.50;1.65;;;11.40;94.10;;;;;;6221141;28;20066;-79
2023/04/24 19:53:33;;;;;;;3.97;1.50;;;11.40;94.00;;;;;;6219552;28;20093;-77
2023/04/24 19:56:35;;;;;;;7.05;1.63;;;11.40;94.20;;;;;;6218883;28;20049;-78
2023/04/24 19:59:38;;;;;;;3.65;1.77;;;11.40;94.40;;;;;;6219561;28;20054;-79
2023/04/24 20:02:40;;;;;;;3.00;1.40;;;11.40;94.40;;;;;;6216932;28;20967;-78
2023/04/24 20:05:42;;;;;;;3.35;1.50;;;11.40;94.70;;;;;;6219936;28;20052;-79
2023/04/24 20:08:43;;;;;;;5.20;1.70;;;11.40;94.80;;;;;;6220614;28;20049;-77
2023/04/24 20:11:46;;;;;;;4.80;1.77;;;11.30;94.80;;;;;;6223486;28;20053;-79
2023/04/24 20:14:49;;;;;;;4.93;1.90;;;11.40;95.00;;;;;;6224554;28;20184;-78
2023/04/24 20:17:51;;;;;;;6.13;1.70;;;11.30;95.00;;;;;;6221284;28;20062;-78
2023/04/24 20:20:55;;;;;;;4.20;1.60;;;11.30;95.30;;;;;;6222048;28;20415;-78
2023/04/24 20:23:57;;;;;;;6.07;1.60;;;11.30;95.20;;;;;;6221017;28;20065;-78
2023/04/24 20:27:00;;;;;;;4.63;1.60;;;11.30;95.30;;;;;;6221559;28;20054;-77
2023/04/24 20:30:05;;;;;;;3.88;1.50;;;11.30;95.30;;;;;;6222145;28;20068;-79
2023/04/24 20:33:07;;;;;;;4.32;1.70;;;11.30;95.30;;;;;;6220928;28;20089;-77
2023/04/24 20:36:09;;;;;;;6.60;2.85;;;11.30;95.50;;;;;;6221309;28;20057;-78
2023/04/24 20:39:11;;;;;;;4.82;2.70;;;11.30;95.70;;;;;;6221435;28;20183;-80
2023/04/24 20:42:15;;;;;;;3.97;1.88;;;11.20;95.60;;;;;;6221711;28;20049;-76
2023/04/24 20:45:18;;;;;;;5.20;1.90;;;11.30;95.70;;;;;;6225643;28;20053;-80
2023/04/24 20:48:20;;;;;;;4.43;1.75;;;11.30;95.80;;;;;;6228510;28;20089;-76
2023/04/24 20:51:22;;;;;;;4.30;1.88;;;11.30;95.70;;;;;;6246510;28;20132;-79
2023/04/24 20:54:24;;;;;;;4.38;2.00;;;11.20;96.20;;;;;;6229053;28;20053;-78
2023/04/24 20:57:26;;;;;;;3.95;1.73;;;11.20;96.30;;;;;;6231928;28;20050;-78
2023/04/24 21:00:30;;;;;;;4.18;1.73;;;11.10;96.50;;;;;;6225487;28;20514;-78
2023/04/24 21:03:31;;;;;;;4.40;1.90;;;11.20;96.50;;;;;;6219999;28;20100;-77
2023/04/24 21:06:33;;;;;;;4.30;1.90;;;11.20;96.50;;;;;;6220982;28;20050;-79
2023/04/24 21:09:35;;;;;;;4.82;1.90;;;11.10;96.70;;;;;;6242124;28;20610;-79
2023/04/24 21:12:37;;;;;;;3.13;1.63;;;11.10;96.50;;;;;;6227958;28;20053;-78
2023/04/24 21:15:40;;;;;;;5.03;1.88;;;11.10;96.80;;;;;;6221545;28;20081;-77
2023/04/24 21:18:42;;;;;;;4.53;2.05;;;11.10;96.60;;;;;;6222055;28;20046;-77
2023/04/24 21:21:44;;;;;;;4.85;2.10;;;11.10;96.70;;;;;;6224146;28;20046;-77
2023/04/24 21:24:45;;;;;;;3.92;1.88;;;11.20;96.70;;;;;;6232965;28;20487;-78
2023/04/24 21:27:47;;;;;;;4.57;1.98;;;11.20;96.90;;;;;;6223562;28;20049;-79
2023/04/24 21:30:51;;;;;;;4.40;1.70;;;11.20;96.80;;;;;;6223135;28;20479;-77
2023/04/24 21:33:53;;;;;;;5.20;1.75;;;11.20;96.90;;;;;;6223618;28;20046;-76
2023/04/24 21:36:54;;;;;;;4.35;1.70;;;11.20;96.90;;;;;;6203994;28;20046;-76
2023/04/24 21:39:56;;;;;;;4.18;1.90;;;11.20;96.90;;;;;;6198100;28;20057;-78
2023/04/24 21:42:58;;;;;;;2.90;1.80;;;11.20;97.10;;;;;;6199177;28;20053;-78
2023/04/24 21:46:01;;;;;;;5.70;2.47;;;11.20;97.20;;;;;;6199020;28;20046;-78
2023/04/24 21:49:03;;;;;;;5.47;2.70;;;11.20;97.30;;;;;;6199045;28;20053;-78
2023/04/24 21:52:05;;;;;;;5.30;2.45;;;11.20;97.40;;;;;;6197413;28;20047;-76
2023/04/24 21:55:08;;;;;;;3.80;2.17;;;11.20;97.50;;;;;;6198815;28;20055;-77
2023/04/24 21:58:10;;;;;;;7.17;2.20;;;11.20;97.80;;;;;;6198573;28;20050;-78
